Aeroporto :
LOGIN :

Iscrizione | Disclaimer

   EN    FR    IT 

 










Sommario :    VFR   VFR Marginale   IFR   IFR Intensivo   IFR Molto Intensivo
Visibilità : 
Base nubi : 
>= 8 km
>= 3000ft
5 / 8 km
1000 / 3000 ft
1500m / 5 km
500 / 1000 ft
800 / 1500m
200 / 500 ft
< 800m
< 200 ft
Simboli :   Temporali  Nebbia  Neve Forte  Precipitazioni Forti  Vento > 20 kt
SIGMETs :   Varie  Temporali  Ghiacco  Turbolenza  Onda orograficha  Ceneri Vulcaniche







- Altitudine del aeroporto : 364 ft
- Carte del aeroporto


LFAQ - Albert Bray

ULTIMO METAR :
  • 211230Z AUTO 13011KT 110V170 CAVOK 24/11 Q1013 NOSIG

METARs OBSOLETI :
  • 211200Z AUTO 14011KT 090V170 CAVOK 24/10 Q1013 NOSIG
  • 211130Z AUTO 14012KT CAVOK 23/10 Q1014 NOSIG
  • 211100Z AUTO 15010KT 110V180 CAVOK 22/09 Q1014 NOSIG
  • 211030Z AUTO 14012KT CAVOK 21/09 Q1014 NOSIG
  • 211000Z AUTO 14012KT CAVOK 19/07 Q1015 NOSIG

TAF TAF LFAQ
Valido dal 21 a 12 ore il 21 a 21 ore UTC


211100Z 2112/2121 13012KT CAVOK
Nessun NOTAM noto per questo aeroporto.



MetMap, La meteo Aeronautica in un colpo d'occhio ! - Copyright ORBIFLY Dicembre 2007 - Disclaimer

ORBIFLY MET'MAP TEAM :

Programmazione e sviluppo : Alexandra Zaïnal
Concezione e sviluppo : Baudouin d'Aumeries
Co-Programmazione e sviluppo : Marc-Olivier Méhu
Supporto tecnico e logistico : Manuel Goepfert
Aiuto per la traduzione : Arnaldo La Scala

Contatto : metmap@orbifly.com




FONTI E CREDITI :

   NOAA